createdAt,value
2023-02-07T00:00:12.140Z,1.63
2023-02-07T00:01:15.229Z,1.56
2023-02-07T00:02:18.637Z,1.56
2023-02-07T00:03:54.185Z,1.56
2023-02-07T00:04:57.264Z,1.50
2023-02-07T00:06:00.334Z,1.44
2023-02-07T00:07:35.459Z,1.44
2023-02-07T00:08:38.505Z,1.44
2023-02-07T00:09:41.643Z,1.44
2023-02-07T00:11:16.522Z,1.44
2023-02-07T00:12:19.591Z,1.44
2023-02-07T00:13:22.667Z,1.44
2023-02-07T00:14:57.660Z,1.44
2023-02-07T00:16:00.627Z,1.44
2023-02-07T00:17:04.298Z,1.50
2023-02-07T00:18:39.744Z,1.44
2023-02-07T00:19:46.226Z,1.50
2023-02-07T00:20:49.269Z,1.50
2023-02-07T00:22:24.300Z,1.50
2023-02-07T00:23:27.139Z,1.50
2023-02-07T00:24:29.971Z,1.50
2023-02-07T00:26:04.972Z,1.50
2023-02-07T00:27:08.111Z,1.50
2023-02-07T00:28:11.080Z,1.50
2023-02-07T00:29:46.704Z,1.56
2023-02-07T00:30:49.776Z,1.56
2023-02-07T00:31:53.864Z,1.56
2023-02-07T00:33:29.047Z,1.56
2023-02-07T00:34:31.962Z,1.56
2023-02-07T00:35:34.975Z,1.56
2023-02-07T00:37:10.041Z,1.56
2023-02-07T00:38:12.982Z,1.56
2023-02-07T00:39:16.372Z,1.50
2023-02-07T00:40:51.002Z,1.50
2023-02-07T00:41:53.872Z,1.50
2023-02-07T00:42:56.807Z,1.50
2023-02-07T00:44:47.042Z,1.44
2023-02-07T00:45:49.973Z,1.44
2023-02-07T00:46:53.464Z,1.44
2023-02-07T00:48:28.157Z,1.44
2023-02-07T00:49:31.080Z,1.44
2023-02-07T00:50:34.303Z,1.44
2023-02-07T00:52:09.340Z,1.44
2023-02-07T00:53:12.373Z,1.44
2023-02-07T00:54:15.664Z,1.38
2023-02-07T00:55:50.657Z,1.38
2023-02-07T00:56:53.779Z,1.38
2023-02-07T00:57:56.721Z,1.38
2023-02-07T00:59:31.693Z,1.38
2023-02-07T01:00:11.723Z,1.38
2023-02-07T01:01:14.747Z,1.38
2023-02-07T01:02:18.118Z,1.38
2023-02-07T01:03:52.926Z,1.38
2023-02-07T01:04:55.988Z,1.38
2023-02-07T01:05:59.181Z,1.38
2023-02-07T01:07:34.373Z,1.38
2023-02-07T01:08:37.619Z,1.38
2023-02-07T01:09:40.569Z,1.38
2023-02-07T01:11:15.596Z,1.38
2023-02-07T01:12:18.468Z,1.38
2023-02-07T01:13:21.681Z,1.38
2023-02-07T01:14:56.228Z,1.31
2023-02-07T01:15:59.215Z,1.31
2023-02-07T01:17:02.244Z,1.31
2023-02-07T01:18:37.161Z,1.31
2023-02-07T01:19:40.077Z,1.31
2023-02-07T01:20:43.101Z,1.31
2023-02-07T01:22:18.004Z,1.31
2023-02-07T01:23:21.018Z,1.31
2023-02-07T01:24:23.979Z,1.31
2023-02-07T01:25:58.693Z,1.25
2023-02-07T01:27:01.643Z,1.25
2023-02-07T01:28:04.573Z,1.25
2023-02-07T01:29:39.611Z,1.19
2023-02-07T01:30:42.725Z,1.19
2023-02-07T01:31:46.543Z,1.19
2023-02-07T01:33:21.206Z,1.19
2023-02-07T01:34:24.054Z,1.13
2023-02-07T01:35:26.958Z,1.13
2023-02-07T01:37:02.418Z,1.13
2023-02-07T01:38:05.335Z,1.06
2023-02-07T01:39:08.413Z,1.00
2023-02-07T01:40:43.523Z,1.00
2023-02-07T01:41:46.628Z,1.00
2023-02-07T01:42:49.504Z,1.00
2023-02-07T01:44:24.510Z,1.00
2023-02-07T01:45:27.469Z,1.00
2023-02-07T01:46:31.007Z,1.00
2023-02-07T01:48:05.886Z,1.00
2023-02-07T01:49:08.847Z,0.94
2023-02-07T01:50:11.596Z,0.94
2023-02-07T01:51:46.268Z,0.94
2023-02-07T01:52:49.232Z,0.94
2023-02-07T01:53:52.227Z,0.94
2023-02-07T01:55:27.225Z,0.88
2023-02-07T01:56:32.238Z,0.88
2023-02-07T01:57:35.573Z,0.88
2023-02-07T01:59:10.398Z,0.88
2023-02-07T02:00:12.590Z,0.88
2023-02-07T02:01:15.578Z,0.88
2023-02-07T02:02:19.070Z,0.81
2023-02-07T02:03:54.562Z,0.81
2023-02-07T02:04:57.472Z,0.81
2023-02-07T02:06:00.417Z,0.81
2023-02-07T02:07:35.476Z,0.75
2023-02-07T02:08:38.364Z,0.81
2023-02-07T02:09:41.359Z,0.81
2023-02-07T02:11:16.472Z,0.75
2023-02-07T02:12:19.207Z,0.75
2023-02-07T02:13:22.346Z,0.75
2023-02-07T02:14:57.149Z,0.75
2023-02-07T02:16:00.627Z,0.75
2023-02-07T02:17:03.909Z,0.75
2023-02-07T02:18:39.108Z,0.75
2023-02-07T02:19:42.215Z,0.69
2023-02-07T02:20:45.322Z,0.69
2023-02-07T02:22:19.997Z,0.69
2023-02-07T02:23:23.022Z,0.63
2023-02-07T02:24:25.901Z,0.63
2023-02-07T02:26:00.970Z,0.56
2023-02-07T02:27:03.998Z,0.56
2023-02-07T02:28:06.934Z,0.56
2023-02-07T02:29:42.000Z,0.56
2023-02-07T02:30:45.010Z,0.56
2023-02-07T02:31:48.746Z,0.56
2023-02-07T02:33:23.693Z,0.56
2023-02-07T02:34:26.770Z,0.56
2023-02-07T02:35:29.617Z,0.56
2023-02-07T02:37:04.911Z,0.50
2023-02-07T02:38:07.871Z,0.50
2023-02-07T02:39:10.708Z,0.50
2023-02-07T02:40:45.622Z,0.50
2023-02-07T02:41:48.642Z,0.50
2023-02-07T02:42:51.399Z,0.50
2023-02-07T02:44:26.132Z,0.50
2023-02-07T02:45:29.127Z,0.50
2023-02-07T02:46:32.737Z,0.44
2023-02-07T02:48:08.070Z,0.44
2023-02-07T02:49:11.194Z,0.44
2023-02-07T02:50:14.138Z,0.44
2023-02-07T02:51:49.147Z,0.44
2023-02-07T02:52:52.003Z,0.38
2023-02-07T02:53:55.071Z,0.38
2023-02-07T02:55:29.673Z,0.38
2023-02-07T02:56:32.754Z,0.38
2023-02-07T02:57:35.735Z,0.38
2023-02-07T02:59:10.551Z,0.38
2023-02-07T03:00:12.219Z,0.38
2023-02-07T03:01:15.089Z,0.38
2023-02-07T03:02:18.151Z,0.38
2023-02-07T03:03:53.073Z,0.38
2023-02-07T03:04:56.238Z,0.38
2023-02-07T03:05:59.763Z,0.38
2023-02-07T03:07:34.604Z,0.31
2023-02-07T03:08:37.696Z,0.31
2023-02-07T03:09:40.853Z,0.31
2023-02-07T03:11:15.814Z,0.31
2023-02-07T03:12:18.753Z,0.25
2023-02-07T03:13:21.529Z,0.25
2023-02-07T03:14:56.118Z,0.25
2023-02-07T03:15:59.080Z,0.25
2023-02-07T03:17:02.524Z,0.25
2023-02-07T03:18:37.380Z,0.25
2023-02-07T03:19:40.193Z,0.19
2023-02-07T03:20:43.258Z,0.19
2023-02-07T03:22:19.599Z,0.19
2023-02-07T03:23:22.560Z,0.19
2023-02-07T03:24:25.540Z,0.19
2023-02-07T03:26:00.774Z,0.19
2023-02-07T03:27:03.756Z,0.19
2023-02-07T03:28:07.045Z,0.19
2023-02-07T03:29:41.702Z,0.19
2023-02-07T03:30:44.589Z,0.19
2023-02-07T03:31:47.836Z,0.19
2023-02-07T03:33:22.748Z,0.13
2023-02-07T03:34:26.032Z,0.13
2023-02-07T03:35:28.970Z,0.13
2023-02-07T03:37:03.996Z,0.13
2023-02-07T03:38:07.007Z,0.13
2023-02-07T03:39:10.155Z,0.13
2023-02-07T03:40:45.274Z,0.13
2023-02-07T03:41:48.397Z,0.13
2023-02-07T03:42:51.449Z,0.13
2023-02-07T03:44:26.494Z,0.13
2023-02-07T03:45:29.357Z,0.13
2023-02-07T03:46:32.485Z,0.13
2023-02-07T03:48:07.544Z,0.13
2023-02-07T03:49:10.475Z,0.13
2023-02-07T03:50:13.371Z,0.06
2023-02-07T03:51:48.007Z,0.06
2023-02-07T03:52:50.861Z,0.06
2023-02-07T03:53:53.937Z,0.06
2023-02-07T03:55:29.114Z,0.00
2023-02-07T03:56:32.493Z,0.00
2023-02-07T03:57:35.613Z,0.00
2023-02-07T03:59:10.573Z,0.00
2023-02-07T04:00:12.002Z,-0.06
2023-02-07T04:01:15.077Z,-0.06
2023-02-07T04:02:18.086Z,-0.06
2023-02-07T04:03:53.757Z,-0.06
2023-02-07T04:04:56.851Z,-0.06
2023-02-07T04:05:59.758Z,-0.06
2023-02-07T04:07:34.428Z,-0.06
2023-02-07T04:08:37.541Z,-0.06
2023-02-07T04:09:40.358Z,-0.06
2023-02-07T04:11:15.288Z,-0.13
2023-02-07T04:12:18.722Z,-0.13
2023-02-07T04:13:21.963Z,-0.13
2023-02-07T04:14:57.589Z,-0.13
2023-02-07T04:16:00.686Z,-0.13
2023-02-07T04:17:04.244Z,-0.13
2023-02-07T04:18:39.111Z,-0.13
2023-02-07T04:19:41.890Z,-0.13
2023-02-07T04:20:44.714Z,-0.19
2023-02-07T04:22:19.500Z,-0.19
2023-02-07T04:23:22.435Z,-0.19
2023-02-07T04:24:25.426Z,-0.19
2023-02-07T04:26:00.368Z,-0.19
2023-02-07T04:27:03.211Z,-0.19
2023-02-07T04:28:06.319Z,-0.25
2023-02-07T04:29:41.689Z,-0.25
2023-02-07T04:30:45.067Z,-0.25
2023-02-07T04:31:48.580Z,-0.31
2023-02-07T04:33:23.713Z,-0.31
2023-02-07T04:34:26.878Z,-0.31
2023-02-07T04:35:29.875Z,-0.31
2023-02-07T04:37:05.027Z,-0.31
2023-02-07T04:38:07.839Z,-0.31
2023-02-07T04:39:10.999Z,-0.38
2023-02-07T04:40:45.750Z,-0.38
2023-02-07T04:41:48.544Z,-0.38
2023-02-07T04:42:51.698Z,-0.38
2023-02-07T04:44:26.600Z,-0.44
2023-02-07T04:45:29.508Z,-0.38
2023-02-07T04:46:33.200Z,-0.38
2023-02-07T04:48:08.242Z,-0.44
2023-02-07T04:49:11.423Z,-0.44
2023-02-07T04:50:15.267Z,-0.44
2023-02-07T04:51:50.369Z,-0.44
2023-02-07T04:52:53.498Z,-0.44
2023-02-07T04:53:56.356Z,-0.44
2023-02-07T04:55:31.290Z,-0.50
2023-02-07T04:56:36.316Z,-0.50
2023-02-07T04:57:39.208Z,-0.50
2023-02-07T04:59:13.865Z,-0.50
2023-02-07T05:00:12.624Z,-0.50
2023-02-07T05:01:15.844Z,-0.56
2023-02-07T05:02:19.278Z,-0.56
2023-02-07T05:03:54.313Z,-0.56
2023-02-07T05:04:57.480Z,-0.56
2023-02-07T05:05:41.836Z,-0.56
2023-02-07T05:06:45.356Z,-0.56
2023-02-07T05:07:48.635Z,-0.56
2023-02-07T05:09:23.774Z,-0.56
2023-02-07T05:10:26.965Z,-0.56
2023-02-07T05:11:29.940Z,-0.56
2023-02-07T05:13:05.114Z,-0.63
2023-02-07T05:14:08.291Z,-0.63
2023-02-07T05:15:11.697Z,-0.63
2023-02-07T05:16:47.809Z,-0.63
2023-02-07T05:17:51.193Z,-0.63
2023-02-07T05:18:54.298Z,-0.63
2023-02-07T05:20:29.405Z,-0.63
2023-02-07T05:21:33.017Z,-0.63
2023-02-07T05:22:36.072Z,-0.63
2023-02-07T05:24:11.108Z,-0.69
2023-02-07T05:25:14.239Z,-0.63
2023-02-07T05:26:18.013Z,-0.69
2023-02-07T05:27:53.004Z,-0.69
2023-02-07T05:28:56.553Z,-0.69
2023-02-07T05:29:59.467Z,-0.63
2023-02-07T05:31:34.883Z,-0.69
2023-02-07T05:32:41.630Z,-0.69
2023-02-07T05:33:44.802Z,-0.69
2023-02-07T05:35:19.798Z,-0.69
2023-02-07T05:36:23.352Z,-0.69
2023-02-07T05:37:26.285Z,-0.69
2023-02-07T05:39:01.328Z,-0.69
2023-02-07T05:40:04.620Z,-0.69
2023-02-07T05:41:07.908Z,-0.69
2023-02-07T05:42:43.077Z,-0.75
2023-02-07T05:43:46.209Z,-0.75
2023-02-07T05:44:49.113Z,-0.75
2023-02-07T05:46:24.764Z,-0.81
2023-02-07T05:47:28.016Z,-0.81
2023-02-07T05:48:31.077Z,-0.81
2023-02-07T05:50:06.097Z,-0.81
2023-02-07T05:51:09.151Z,-0.88
2023-02-07T05:52:12.002Z,-0.88
2023-02-07T05:53:48.440Z,-0.88
2023-02-07T05:54:51.869Z,-0.88
2023-02-07T05:55:55.058Z,-0.88
2023-02-07T05:57:30.152Z,-0.88
2023-02-07T05:58:33.302Z,-0.94
2023-02-07T05:59:36.638Z,-0.94
2023-02-07T06:00:12.057Z,-0.94
2023-02-07T06:01:15.304Z,-0.94
2023-02-07T06:02:18.599Z,-0.94
2023-02-07T06:03:54.333Z,-1.00
2023-02-07T06:04:57.291Z,-1.00
2023-02-07T06:06:00.412Z,-1.00
2023-02-07T06:07:35.177Z,-1.00
2023-02-07T06:08:38.154Z,-1.00
2023-02-07T06:09:41.194Z,-1.00
2023-02-07T06:11:16.104Z,-1.00
2023-02-07T06:12:19.076Z,-1.06
2023-02-07T06:13:22.185Z,-1.06
2023-02-07T06:14:57.463Z,-1.06
2023-02-07T06:16:00.673Z,-1.06
2023-02-07T06:17:04.183Z,-1.06
2023-02-07T06:18:39.501Z,-1.13
2023-02-07T06:19:42.544Z,-1.06
2023-02-07T06:20:45.907Z,-1.06
2023-02-07T06:22:32.409Z,-1.13
2023-02-07T06:23:35.341Z,-1.13
2023-02-07T06:24:38.103Z,-1.13
2023-02-07T06:26:13.241Z,-1.13
2023-02-07T06:27:16.169Z,-1.13
2023-02-07T06:28:19.453Z,-1.13
2023-02-07T06:29:54.605Z,-1.13
2023-02-07T06:30:57.670Z,-1.13
2023-02-07T06:32:01.553Z,-1.19
2023-02-07T06:33:36.675Z,-1.19
2023-02-07T06:34:39.596Z,-1.19
2023-02-07T06:35:42.713Z,-1.19
2023-02-07T06:37:17.511Z,-1.19
2023-02-07T06:38:20.512Z,-1.19
2023-02-07T06:39:23.382Z,-1.19
2023-02-07T06:40:58.314Z,-1.19
2023-02-07T06:42:01.203Z,-1.25
2023-02-07T06:43:04.115Z,-1.25
2023-02-07T06:44:38.955Z,-1.25
2023-02-07T06:45:42.185Z,-1.25
2023-02-07T06:46:45.482Z,-1.25
2023-02-07T06:48:20.354Z,-1.25
2023-02-07T06:49:23.551Z,-1.31
2023-02-07T06:50:26.490Z,-1.31
2023-02-07T06:52:01.567Z,-1.31
2023-02-07T06:53:04.568Z,-1.31
2023-02-07T06:54:07.415Z,-1.31
2023-02-07T06:55:42.291Z,-1.31
2023-02-07T06:56:45.216Z,-1.31
2023-02-07T06:57:48.013Z,-1.31
2023-02-07T06:59:22.728Z,-1.38
2023-02-07T07:00:12.809Z,-1.31
2023-02-07T07:01:15.964Z,-1.31
2023-02-07T07:02:19.253Z,-1.38
2023-02-07T07:03:54.413Z,-1.31
2023-02-07T07:04:57.377Z,-1.38
2023-02-07T07:06:02.846Z,-1.38
2023-02-07T07:07:37.913Z,-1.38
2023-02-07T07:08:40.817Z,-1.38
2023-02-07T07:09:43.759Z,-1.38
2023-02-07T07:11:19.023Z,-1.44
2023-02-07T07:12:21.946Z,-1.44
2023-02-07T07:13:24.811Z,-1.50
2023-02-07T07:14:59.696Z,-1.50
2023-02-07T07:16:02.578Z,-1.50
2023-02-07T07:17:05.864Z,-1.50
2023-02-07T07:18:40.688Z,-1.50
2023-02-07T07:19:43.780Z,-1.50
2023-02-07T07:20:46.799Z,-1.50
2023-02-07T07:22:21.699Z,-1.56
2023-02-07T07:23:24.676Z,-1.56
2023-02-07T07:24:27.697Z,-1.56
2023-02-07T07:26:02.772Z,-1.56
2023-02-07T07:27:23.548Z,-1.63
2023-02-07T07:28:26.894Z,-1.63
2023-02-07T07:30:01.962Z,-1.63
2023-02-07T07:31:08.029Z,-1.63
2023-02-07T07:32:13.093Z,-1.63
2023-02-07T07:34:03.209Z,-1.69
2023-02-07T07:35:06.105Z,-1.69
2023-02-07T07:36:12.716Z,-1.69
2023-02-07T07:37:47.730Z,-1.63
2023-02-07T07:38:51.438Z,-1.69
2023-02-07T07:39:55.481Z,-1.63
2023-02-07T07:41:30.519Z,-1.69
2023-02-07T07:42:33.622Z,-1.69
2023-02-07T07:43:36.656Z,-1.69
2023-02-07T07:45:13.625Z,-1.69
2023-02-07T07:46:16.636Z,-1.69
2023-02-07T07:47:19.967Z,-1.69
2023-02-07T07:48:54.990Z,-1.69
2023-02-07T07:49:58.032Z,-1.69
2023-02-07T07:51:01.115Z,-1.69
2023-02-07T07:52:35.935Z,-1.69
2023-02-07T07:53:38.963Z,-1.69
2023-02-07T07:54:41.918Z,-1.63
2023-02-07T07:56:16.785Z,-1.63
2023-02-07T07:57:21.255Z,-1.63
2023-02-07T07:58:24.736Z,-1.63
2023-02-07T08:00:12.407Z,-1.63
2023-02-07T08:01:16.393Z,-1.63
2023-02-07T08:02:19.311Z,-1.63
2023-02-07T08:03:54.038Z,-1.56
2023-02-07T08:04:57.155Z,-1.56
2023-02-07T08:06:00.204Z,-1.56
2023-02-07T08:07:35.161Z,-1.56
2023-02-07T08:08:38.107Z,-1.56
2023-02-07T08:09:41.058Z,-1.50
2023-02-07T08:11:16.256Z,-1.50
2023-02-07T08:12:19.302Z,-1.50
2023-02-07T08:13:27.513Z,-1.44
2023-02-07T08:15:04.497Z,-1.44
2023-02-07T08:16:07.676Z,-1.44
2023-02-07T08:17:10.987Z,-1.44
2023-02-07T08:18:46.003Z,-1.44
2023-02-07T08:19:48.728Z,-1.38
2023-02-07T08:20:51.615Z,-1.38
2023-02-07T08:22:26.488Z,-1.38
2023-02-07T08:23:29.479Z,-1.38
2023-02-07T08:24:32.402Z,-1.38
2023-02-07T08:26:07.342Z,-1.38
2023-02-07T08:27:10.262Z,-1.31
2023-02-07T08:28:13.273Z,-1.31
2023-02-07T08:29:48.342Z,-1.31
2023-02-07T08:30:51.366Z,-1.31
2023-02-07T08:31:55.186Z,-1.25
2023-02-07T08:33:30.822Z,-1.25
2023-02-07T08:34:33.892Z,-1.19
2023-02-07T08:35:36.953Z,-1.19
2023-02-07T08:37:11.604Z,-1.19
2023-02-07T08:38:14.484Z,-1.13
2023-02-07T08:39:17.327Z,-1.13
2023-02-07T08:40:51.933Z,-1.13
2023-02-07T08:41:54.728Z,-1.13
2023-02-07T08:42:57.702Z,-1.13
2023-02-07T08:44:32.771Z,-1.06
2023-02-07T08:45:35.900Z,-1.06
2023-02-07T08:46:39.854Z,-1.06
2023-02-07T08:48:14.950Z,-1.00
2023-02-07T08:49:18.009Z,-1.00
2023-02-07T08:50:21.015Z,-1.00
2023-02-07T08:51:56.254Z,-0.94
2023-02-07T08:52:59.060Z,-0.94
2023-02-07T08:54:02.075Z,-0.94
2023-02-07T08:55:36.866Z,-0.88
2023-02-07T08:56:39.773Z,-0.88
2023-02-07T08:57:42.728Z,-0.81
2023-02-07T08:59:17.367Z,-0.81
2023-02-07T09:00:11.918Z,-0.81
2023-02-07T09:01:15.778Z,-0.75
2023-02-07T09:02:19.205Z,-0.75
2023-02-07T09:03:55.103Z,-0.69
2023-02-07T09:04:58.172Z,-0.69
2023-02-07T09:06:01.186Z,-0.69
2023-02-07T09:07:36.312Z,-0.63
2023-02-07T09:08:39.219Z,-0.63
2023-02-07T09:09:42.265Z,-0.63
2023-02-07T09:11:18.506Z,-0.63
2023-02-07T09:12:21.692Z,-0.56
2023-02-07T09:13:24.592Z,-0.56
2023-02-07T09:14:59.521Z,-0.56
2023-02-07T09:16:02.404Z,-0.50
2023-02-07T09:17:05.700Z,-0.50
2023-02-07T09:18:40.590Z,-0.44
2023-02-07T09:19:43.940Z,-0.44
2023-02-07T09:20:47.140Z,-0.44
2023-02-07T09:22:22.325Z,-0.38
2023-02-07T09:23:25.231Z,-0.38
2023-02-07T09:24:28.261Z,-0.38
2023-02-07T09:26:03.121Z,-0.31
2023-02-07T09:27:06.173Z,-0.31
2023-02-07T09:28:09.069Z,-0.31
2023-02-07T09:29:44.108Z,-0.31
2023-02-07T09:30:47.697Z,-0.25
2023-02-07T09:31:52.628Z,-0.25
2023-02-07T09:33:27.539Z,-0.25
2023-02-07T09:34:30.584Z,-0.19
2023-02-07T09:35:33.660Z,-0.19
2023-02-07T09:37:08.515Z,-0.19
2023-02-07T09:38:25.214Z,-0.13
2023-02-07T09:39:28.224Z,-0.13
2023-02-07T09:41:03.331Z,-0.13
2023-02-07T09:42:06.174Z,-0.06
2023-02-07T09:43:09.192Z,-0.06
2023-02-07T09:44:52.175Z,-0.06
2023-02-07T09:45:56.576Z,0.00
2023-02-07T09:47:00.321Z,0.00
2023-02-07T09:48:35.097Z,0.00
2023-02-07T09:49:38.104Z,0.06
2023-02-07T09:50:41.432Z,0.06
2023-02-07T09:52:16.643Z,0.13
2023-02-07T09:53:19.688Z,0.13
2023-02-07T09:54:22.717Z,0.19
2023-02-07T09:55:57.781Z,0.19
2023-02-07T09:57:00.746Z,0.25
2023-02-07T09:58:03.806Z,0.31
2023-02-07T09:59:38.922Z,0.38
2023-02-07T10:00:12.783Z,0.38
2023-02-07T10:01:16.629Z,0.38
2023-02-07T10:02:19.971Z,0.44
2023-02-07T10:03:55.014Z,0.50
2023-02-07T10:04:58.033Z,0.50
2023-02-07T10:06:12.563Z,0.56
2023-02-07T10:07:52.212Z,0.56
2023-02-07T10:08:55.198Z,0.63
2023-02-07T10:09:58.240Z,0.63
2023-02-07T10:11:33.400Z,0.69
2023-02-07T10:12:36.689Z,0.69
2023-02-07T10:13:39.566Z,0.75
2023-02-07T10:15:14.489Z,0.81
2023-02-07T10:16:17.769Z,0.88
2023-02-07T10:17:31.020Z,0.88
2023-02-07T10:19:06.746Z,0.94
2023-02-07T10:20:09.546Z,0.94
2023-02-07T10:21:12.872Z,0.94
2023-02-07T10:22:47.760Z,1.00
2023-02-07T10:23:50.741Z,1.00
2023-02-07T10:24:53.946Z,1.06
2023-02-07T10:26:29.253Z,1.06
2023-02-07T10:27:32.399Z,1.13
2023-02-07T10:28:35.602Z,1.13
2023-02-07T10:30:10.374Z,1.19
2023-02-07T10:31:14.358Z,1.19
2023-02-07T10:32:18.107Z,1.25
2023-02-07T10:33:53.210Z,1.31
2023-02-07T10:34:56.354Z,1.31
2023-02-07T10:35:59.364Z,1.31
2023-02-07T10:37:34.010Z,1.38
2023-02-07T10:38:36.814Z,1.44
2023-02-07T10:39:55.700Z,1.50
2023-02-07T10:41:30.834Z,1.56
2023-02-07T10:42:36.697Z,1.63
2023-02-07T10:43:39.892Z,1.69
2023-02-07T10:45:14.972Z,1.69
2023-02-07T10:46:18.268Z,1.81
2023-02-07T10:47:21.691Z,1.81
2023-02-07T10:48:56.711Z,1.88
2023-02-07T10:50:05.464Z,1.94
2023-02-07T10:51:22.338Z,1.94
2023-02-07T10:52:57.120Z,1.94
2023-02-07T10:53:59.919Z,1.94
2023-02-07T10:55:02.871Z,1.94
2023-02-07T10:56:37.495Z,2.00
2023-02-07T10:57:50.948Z,2.00
2023-02-07T10:59:15.235Z,2.06
2023-02-07T11:00:12.154Z,2.06
2023-02-07T11:01:15.736Z,2.06
2023-02-07T11:02:20.122Z,2.06
2023-02-07T11:03:55.636Z,2.13
2023-02-07T11:04:58.526Z,2.19
2023-02-07T11:06:01.486Z,2.25
2023-02-07T11:07:46.298Z,2.25
2023-02-07T11:08:50.758Z,2.31
2023-02-07T11:09:53.668Z,2.31
2023-02-07T11:11:28.485Z,2.38
2023-02-07T11:12:31.427Z,2.44
2023-02-07T11:13:34.422Z,2.44
2023-02-07T11:15:11.196Z,2.50
2023-02-07T11:16:15.030Z,2.50
2023-02-07T11:17:18.122Z,2.56
2023-02-07T11:18:53.292Z,2.56
2023-02-07T11:19:56.584Z,2.56
2023-02-07T11:20:59.861Z,2.63
2023-02-07T11:22:34.750Z,2.63
2023-02-07T11:23:37.790Z,2.69
2023-02-07T11:24:42.985Z,2.69
2023-02-07T11:26:18.440Z,2.75
2023-02-07T11:27:21.363Z,2.75
2023-02-07T11:28:24.298Z,2.75
2023-02-07T11:29:59.272Z,2.81
2023-02-07T11:31:02.308Z,2.81
2023-02-07T11:32:06.033Z,2.81
2023-02-07T11:33:42.479Z,2.88
2023-02-07T11:34:45.238Z,2.94
2023-02-07T11:35:48.420Z,2.94
2023-02-07T11:37:23.532Z,2.94
2023-02-07T11:38:26.842Z,3.00
2023-02-07T11:39:29.908Z,3.00
2023-02-07T11:41:04.851Z,3.00
2023-02-07T11:42:08.039Z,2.94
2023-02-07T11:43:11.055Z,2.94
2023-02-07T11:44:45.805Z,2.94
2023-02-07T11:45:48.821Z,2.94
2023-02-07T11:46:52.047Z,2.94
2023-02-07T11:48:26.937Z,3.00
2023-02-07T11:49:29.933Z,3.06
2023-02-07T11:50:32.996Z,3.13
2023-02-07T11:52:08.282Z,3.13
2023-02-07T11:53:11.239Z,3.13
2023-02-07T11:54:14.395Z,3.19
2023-02-07T11:55:49.936Z,3.19
2023-02-07T11:56:54.111Z,3.13
2023-02-07T11:57:57.108Z,3.19
2023-02-07T11:59:31.902Z,3.13
2023-02-07T12:00:11.955Z,3.19
2023-02-07T12:01:14.824Z,3.19
2023-02-07T12:02:17.935Z,3.25
2023-02-07T12:03:52.667Z,3.38
2023-02-07T12:04:55.732Z,3.38
2023-02-07T12:05:58.813Z,3.44
2023-02-07T12:07:33.983Z,3.50
2023-02-07T12:08:38.352Z,3.50
2023-02-07T12:09:41.479Z,3.50
2023-02-07T12:11:16.564Z,3.50
2023-02-07T12:12:19.710Z,3.56
2023-02-07T12:13:22.754Z,3.56
2023-02-07T12:14:57.751Z,3.56
2023-02-07T12:16:00.700Z,3.63
2023-02-07T12:17:04.110Z,3.63
2023-02-07T12:18:38.889Z,3.63
2023-02-07T12:19:41.794Z,3.63
2023-02-07T12:20:44.583Z,3.63
2023-02-07T12:22:19.450Z,3.69
2023-02-07T12:23:46.582Z,3.69
2023-02-07T12:24:49.540Z,3.63
2023-02-07T12:26:24.757Z,3.63
2023-02-07T12:27:27.669Z,3.56
2023-02-07T12:28:30.963Z,3.63
2023-02-07T12:30:21.147Z,3.63
2023-02-07T12:31:24.640Z,3.63
2023-02-07T12:32:29.255Z,3.69
2023-02-07T12:34:05.244Z,3.81
2023-02-07T12:35:08.337Z,3.81
2023-02-07T12:36:14.135Z,3.81
2023-02-07T12:37:51.159Z,3.88
2023-02-07T12:38:54.001Z,3.88
2023-02-07T12:39:57.069Z,3.88
2023-02-07T12:41:31.941Z,3.88
2023-02-07T12:42:34.998Z,3.94
2023-02-07T12:43:38.121Z,3.94
2023-02-07T12:45:15.618Z,3.88
2023-02-07T12:46:19.326Z,3.94
2023-02-07T12:47:22.344Z,3.94
2023-02-07T12:48:57.488Z,4.00
2023-02-07T12:50:00.580Z,4.00
2023-02-07T12:51:03.680Z,4.06
2023-02-07T12:52:41.295Z,4.06
2023-02-07T12:53:44.342Z,4.06
2023-02-07T12:54:47.213Z,4.06
2023-02-07T12:56:22.248Z,4.06
2023-02-07T12:57:24.976Z,4.06
2023-02-07T12:58:30.125Z,4.06
2023-02-07T13:00:12.594Z,4.13
2023-02-07T13:01:15.658Z,4.19
2023-02-07T13:02:18.920Z,4.19
2023-02-07T13:03:56.083Z,4.25
2023-02-07T13:04:59.167Z,4.25
2023-02-07T13:06:02.333Z,4.25
2023-02-07T13:07:37.192Z,4.25
2023-02-07T13:08:40.298Z,4.25
2023-02-07T13:09:43.046Z,4.25
2023-02-07T13:11:17.805Z,4.25
2023-02-07T13:12:20.843Z,4.25
2023-02-07T13:13:23.562Z,4.25
2023-02-07T13:14:58.345Z,4.19
2023-02-07T13:16:03.815Z,4.19
2023-02-07T13:17:07.082Z,4.19
2023-02-07T13:18:42.058Z,4.13
2023-02-07T13:19:44.976Z,4.06
2023-02-07T13:20:48.033Z,4.06
2023-02-07T13:22:24.227Z,4.06
2023-02-07T13:23:27.167Z,4.00
2023-02-07T13:24:30.109Z,3.94
2023-02-07T13:26:05.093Z,3.88
2023-02-07T13:27:07.991Z,3.88
2023-02-07T13:28:13.370Z,3.88
2023-02-07T13:29:48.388Z,3.81
2023-02-07T13:30:51.636Z,3.81
2023-02-07T13:31:54.992Z,3.75
2023-02-07T13:33:30.415Z,3.69
2023-02-07T13:34:33.660Z,3.69
2023-02-07T13:35:37.063Z,3.63
2023-02-07T13:37:17.014Z,3.63
2023-02-07T13:38:20.678Z,3.56
2023-02-07T13:39:23.639Z,3.56
2023-02-07T13:41:01.458Z,3.56
2023-02-07T13:42:04.408Z,3.50
2023-02-07T13:43:07.694Z,3.50
2023-02-07T13:44:56.255Z,3.50
2023-02-07T13:45:59.300Z,3.50
2023-02-07T13:47:06.734Z,3.44
2023-02-07T13:48:41.632Z,3.44
2023-02-07T13:49:44.602Z,3.38
2023-02-07T13:50:47.619Z,3.38
2023-02-07T13:52:22.726Z,3.31
2023-02-07T13:53:25.943Z,3.31
2023-02-07T13:54:28.820Z,3.31
2023-02-07T13:56:03.887Z,3.31
2023-02-07T13:57:07.064Z,3.25
2023-02-07T13:58:11.399Z,3.25
2023-02-07T13:59:46.993Z,3.25
2023-02-07T14:00:12.163Z,3.25
2023-02-07T14:01:15.110Z,3.19
2023-02-07T14:02:18.401Z,3.19
2023-02-07T14:03:53.472Z,3.19
2023-02-07T14:04:56.665Z,3.19
2023-02-07T14:05:59.604Z,3.19
2023-02-07T14:07:34.704Z,3.19
2023-02-07T14:08:37.796Z,3.19
2023-02-07T14:09:41.684Z,3.19
2023-02-07T14:11:16.650Z,3.19
2023-02-07T14:12:19.726Z,3.19
2023-02-07T14:13:22.751Z,3.19
2023-02-07T14:15:03.046Z,3.19
2023-02-07T14:16:06.448Z,3.19
2023-02-07T14:17:09.471Z,3.19
2023-02-07T14:18:44.245Z,3.19
2023-02-07T14:19:47.388Z,3.19
2023-02-07T14:20:50.368Z,3.19
2023-02-07T14:22:25.363Z,3.19
2023-02-07T14:23:28.695Z,3.25
2023-02-07T14:24:31.601Z,3.19
2023-02-07T14:26:06.859Z,3.25
2023-02-07T14:27:09.834Z,3.25
2023-02-07T14:28:12.990Z,3.25
2023-02-07T14:29:48.195Z,3.19
2023-02-07T14:30:51.613Z,3.25
2023-02-07T14:31:55.902Z,3.25
2023-02-07T14:33:31.214Z,3.25
2023-02-07T14:34:34.137Z,3.25
2023-02-07T14:35:38.283Z,3.25
2023-02-07T14:37:13.121Z,3.25
2023-02-07T14:38:16.119Z,3.25
2023-02-07T14:39:19.168Z,3.25
2023-02-07T14:41:01.896Z,3.25
2023-02-07T14:42:11.958Z,3.25
2023-02-07T14:43:15.110Z,3.25
2023-02-07T14:44:56.311Z,3.25
2023-02-07T14:45:59.831Z,3.19
2023-02-07T14:47:04.777Z,3.19
2023-02-07T14:48:39.958Z,3.19
2023-02-07T14:49:42.959Z,3.13
2023-02-07T14:50:45.834Z,3.13
2023-02-07T14:52:20.578Z,3.13
2023-02-07T14:53:23.616Z,3.13
2023-02-07T14:54:26.663Z,3.13
2023-02-07T14:56:01.604Z,3.13
2023-02-07T14:57:04.614Z,3.13
2023-02-07T14:58:09.426Z,3.13
2023-02-07T14:59:44.210Z,3.13
2023-02-07T15:00:12.803Z,3.13
2023-02-07T15:01:16.893Z,3.13
2023-02-07T15:02:20.361Z,3.13
2023-02-07T15:03:56.422Z,3.13
2023-02-07T15:04:59.306Z,3.13
2023-02-07T15:06:02.592Z,3.13
2023-02-07T15:07:50.470Z,3.13
2023-02-07T15:08:53.293Z,3.13
2023-02-07T15:09:56.277Z,3.06
2023-02-07T15:11:31.371Z,3.06
2023-02-07T15:13:02.495Z,3.06
2023-02-07T15:14:05.541Z,3.06
2023-02-07T15:15:40.487Z,3.06
2023-02-07T15:16:45.192Z,3.06
2023-02-07T15:17:48.190Z,3.06
2023-02-07T15:19:23.075Z,3.06
2023-02-07T15:20:26.117Z,3.06
2023-02-07T15:21:33.054Z,3.06
2023-02-07T15:23:12.258Z,3.00
2023-02-07T15:24:15.153Z,3.00
2023-02-07T15:25:33.000Z,3.00
2023-02-07T15:27:08.142Z,3.00
2023-02-07T15:28:18.272Z,3.00
2023-02-07T15:29:26.457Z,3.00
2023-02-07T15:31:01.619Z,3.00
2023-02-07T15:32:06.180Z,3.00
2023-02-07T15:33:10.206Z,2.94
2023-02-07T15:34:45.216Z,2.94
2023-02-07T15:35:48.229Z,2.94
2023-02-07T15:36:51.309Z,2.94
2023-02-07T15:38:26.358Z,2.94
2023-02-07T15:39:29.388Z,2.94
2023-02-07T15:40:32.629Z,2.94
2023-02-07T15:42:09.845Z,2.94
2023-02-07T15:43:12.842Z,2.94
2023-02-07T15:44:15.778Z,2.94
2023-02-07T15:46:04.951Z,3.00
2023-02-07T15:47:08.172Z,2.94
2023-02-07T15:48:11.135Z,2.94
2023-02-07T15:49:46.048Z,2.88
2023-02-07T15:50:49.224Z,2.88
2023-02-07T15:51:52.186Z,2.88
2023-02-07T15:53:27.626Z,2.88
2023-02-07T15:54:30.595Z,2.88
2023-02-07T15:55:33.584Z,2.81
2023-02-07T15:57:09.142Z,2.81
2023-02-07T15:58:12.330Z,2.81
2023-02-07T15:59:15.223Z,2.81
2023-02-07T16:00:12.158Z,2.81
2023-02-07T16:01:15.767Z,2.81
2023-02-07T16:02:19.055Z,2.81
2023-02-07T16:03:54.585Z,2.81
2023-02-07T16:04:57.464Z,2.81
2023-02-07T16:06:00.637Z,2.75
2023-02-07T16:07:35.914Z,2.75
2023-02-07T16:08:38.739Z,2.75
2023-02-07T16:09:41.784Z,2.75